createdAt,value
2022-11-14T00:00:21.243Z,100242.50
2022-11-14T00:03:07.710Z,100245.03
2022-11-14T00:05:54.286Z,100231.97
2022-11-14T00:08:39.831Z,100225.38
2022-11-14T00:11:25.566Z,100220.47
2022-11-14T00:14:11.490Z,100224.09
2022-11-14T00:16:56.959Z,100220.37
2022-11-14T00:19:42.881Z,100228.56
2022-11-14T00:22:28.429Z,100230.44
2022-11-14T00:25:14.130Z,100228.78
2022-11-14T00:27:59.871Z,100229.94
2022-11-14T00:30:48.836Z,100216.09
2022-11-14T00:33:34.752Z,100234.53
2022-11-14T00:36:20.286Z,100233.66
2022-11-14T00:39:06.109Z,100223.87
2022-11-14T00:41:51.958Z,100217.00
2022-11-14T00:44:37.785Z,100232.50
2022-11-14T00:47:23.693Z,100224.88
2022-11-14T00:50:09.940Z,100224.25
2022-11-14T00:52:55.562Z,100234.00
2022-11-14T00:55:41.368Z,100231.72
2022-11-14T00:58:27.292Z,100228.09
2022-11-14T01:01:13.092Z,100227.16
2022-11-14T01:03:58.852Z,100220.41
2022-11-14T01:06:44.533Z,100226.41
2022-11-14T01:09:30.480Z,100218.56
2022-11-14T01:12:16.211Z,100218.66
2022-11-14T01:15:01.939Z,100207.28
2022-11-14T01:17:47.766Z,100204.81
2022-11-14T01:20:33.514Z,100196.78
2022-11-14T01:23:19.174Z,100203.66
2022-11-14T01:26:09.031Z,100199.31
2022-11-14T01:28:54.610Z,100199.75
2022-11-14T01:31:40.158Z,100206.25
2022-11-14T01:34:26.562Z,100199.84
2022-11-14T01:37:12.000Z,100201.34
2022-11-14T01:39:57.806Z,100198.91
2022-11-14T01:42:43.638Z,100192.87
2022-11-14T01:45:47.291Z,100185.00
2022-11-14T01:48:32.789Z,100191.03
2022-11-14T01:51:36.807Z,100185.59
2022-11-14T01:54:29.266Z,100177.13
2022-11-14T01:57:15.503Z,100175.63
2022-11-14T02:00:02.223Z,100177.09
2022-11-14T02:02:47.903Z,100179.44
2022-11-14T02:05:33.356Z,100172.91
2022-11-14T02:08:19.020Z,100180.06
2022-11-14T02:11:04.742Z,100172.09
2022-11-14T02:13:50.251Z,100182.75
2022-11-14T02:16:36.029Z,100176.03
2022-11-14T02:19:21.387Z,100180.78
2022-11-14T02:22:07.185Z,100172.72
2022-11-14T02:24:52.802Z,100180.09
2022-11-14T02:27:39.007Z,100180.22
2022-11-14T02:30:24.442Z,100171.44
2022-11-14T02:33:11.395Z,100180.22
2022-11-14T02:35:57.176Z,100173.91
2022-11-14T02:38:42.886Z,100178.41
2022-11-14T02:41:28.577Z,100179.34
2022-11-14T02:44:14.471Z,100173.13
2022-11-14T02:47:00.210Z,100175.56
2022-11-14T02:49:45.605Z,100181.19
2022-11-14T02:52:31.298Z,100176.63
2022-11-14T02:55:17.051Z,100174.97
2022-11-14T02:58:02.538Z,100174.28
2022-11-14T03:01:13.395Z,100168.91
2022-11-14T03:03:54.013Z,100172.22
2022-11-14T03:06:39.878Z,100174.09
2022-11-14T03:09:25.566Z,100171.56
2022-11-14T03:12:11.311Z,100172.34
2022-11-14T03:14:57.167Z,100166.56
2022-11-14T03:17:42.616Z,100168.00
2022-11-14T03:20:28.532Z,100164.97
2022-11-14T03:23:16.943Z,100167.22
2022-11-14T03:26:03.732Z,100164.12
2022-11-14T03:28:49.448Z,100163.81
2022-11-14T03:31:34.863Z,100163.44
2022-11-14T03:34:20.516Z,100156.53
2022-11-14T03:37:08.375Z,100154.91
2022-11-14T03:39:56.567Z,100154.53
2022-11-14T03:42:42.271Z,100153.00
2022-11-14T03:45:28.166Z,100157.88
2022-11-14T03:48:14.080Z,100153.38
2022-11-14T03:50:59.587Z,100155.91
2022-11-14T03:53:45.391Z,100153.16
2022-11-14T03:56:30.863Z,100155.44
2022-11-14T03:59:16.695Z,100155.87
2022-11-14T04:02:02.449Z,100152.31
2022-11-14T04:04:48.229Z,100149.41
2022-11-14T04:07:34.129Z,100145.91
2022-11-14T04:10:19.735Z,100144.22
2022-11-14T04:13:05.662Z,100156.13
2022-11-14T04:15:54.917Z,100142.66
2022-11-14T04:18:40.614Z,100146.13
2022-11-14T04:21:26.487Z,100141.84
2022-11-14T04:24:12.144Z,100148.25
2022-11-14T04:26:57.844Z,100147.06
2022-11-14T04:29:43.610Z,100141.78
2022-11-14T04:32:29.948Z,100144.44
2022-11-14T04:35:15.638Z,100135.06
2022-11-14T04:38:01.194Z,100129.63
2022-11-14T04:40:50.886Z,100134.84
2022-11-14T04:43:36.716Z,100126.31
2022-11-14T04:46:22.559Z,100124.59
2022-11-14T04:49:08.220Z,100114.38
2022-11-14T04:51:54.020Z,100114.94
2022-11-14T04:54:39.851Z,100115.69
2022-11-14T04:57:25.613Z,100117.16
2022-11-14T05:00:11.879Z,100107.19
2022-11-14T05:02:58.896Z,100100.31
2022-11-14T05:05:44.323Z,100099.84
2022-11-14T05:08:30.261Z,100103.75
2022-11-14T05:11:16.516Z,100102.84
2022-11-14T05:14:02.411Z,100095.41
2022-11-14T05:16:48.259Z,100087.59
2022-11-14T05:19:33.983Z,100098.53
2022-11-14T05:22:19.806Z,100102.44
2022-11-14T05:25:06.214Z,100108.59
2022-11-14T05:27:51.711Z,100103.22
2022-11-14T05:30:37.351Z,100104.22
2022-11-14T05:33:23.357Z,100099.13
2022-11-14T05:36:10.135Z,100093.31
2022-11-14T05:38:56.065Z,100106.13
2022-11-14T05:41:41.762Z,100104.25
2022-11-14T05:44:27.617Z,100098.19
2022-11-14T05:47:13.205Z,100097.25
2022-11-14T05:49:58.895Z,100094.66
2022-11-14T05:52:47.381Z,100109.69
2022-11-14T05:55:33.043Z,100105.19
2022-11-14T05:58:18.852Z,100102.81
2022-11-14T06:01:05.202Z,100103.09
2022-11-14T06:03:50.937Z,100104.38
2022-11-14T06:06:36.765Z,100102.81
2022-11-14T06:09:22.578Z,100108.72
2022-11-14T06:12:08.392Z,100113.03
2022-11-14T06:14:54.229Z,100111.66
2022-11-14T06:17:39.947Z,100129.03
2022-11-14T06:20:25.647Z,100133.72
2022-11-14T06:23:11.472Z,100126.84
2022-11-14T06:26:00.722Z,100140.34
2022-11-14T06:28:46.687Z,100130.34
2022-11-14T06:31:32.173Z,100124.34
2022-11-14T06:34:17.900Z,100127.44
2022-11-14T06:37:04.600Z,100129.91
2022-11-14T06:39:50.302Z,100127.69
2022-11-14T06:42:35.984Z,100142.03
2022-11-14T06:45:21.848Z,100139.97
2022-11-14T06:48:07.521Z,100140.41
2022-11-14T06:50:56.719Z,100145.81
2022-11-14T06:53:42.560Z,100140.50
2022-11-14T06:56:28.223Z,100144.69
2022-11-14T06:59:14.374Z,100149.25
2022-11-14T07:02:00.179Z,100143.78
2022-11-14T07:04:46.336Z,100142.69
2022-11-14T07:07:32.363Z,100137.66
2022-11-14T07:10:18.020Z,100136.25
2022-11-14T07:13:03.792Z,100139.81
2022-11-14T07:15:52.830Z,100135.34
2022-11-14T07:18:38.264Z,100139.97
2022-11-14T07:21:24.341Z,100140.19
2022-11-14T07:24:10.244Z,100132.00
2022-11-14T07:26:55.896Z,100128.56
2022-11-14T07:29:43.681Z,100132.16
2022-11-14T07:32:29.211Z,100135.06
2022-11-14T07:35:14.990Z,100137.16
2022-11-14T07:38:01.036Z,100133.62
2022-11-14T07:40:58.167Z,100131.31
2022-11-14T07:43:45.395Z,100132.69
2022-11-14T07:46:31.265Z,100129.88
2022-11-14T07:49:17.845Z,100133.50
2022-11-14T07:52:03.744Z,100124.59
2022-11-14T07:54:49.422Z,100132.63
2022-11-14T07:57:40.380Z,100137.84
2022-11-14T08:00:27.595Z,100141.28
2022-11-14T08:03:13.383Z,100132.97
2022-11-14T08:06:06.321Z,100126.50
2022-11-14T08:08:52.012Z,100128.09
2022-11-14T08:11:49.813Z,100127.94
2022-11-14T08:14:35.327Z,100122.97
2022-11-14T08:17:21.601Z,100130.03
2022-11-14T08:20:07.831Z,100125.41
2022-11-14T08:22:54.141Z,100122.53
2022-11-14T08:25:40.156Z,100120.72
2022-11-14T08:28:25.427Z,100123.28
2022-11-14T08:31:11.256Z,100116.75
2022-11-14T08:33:57.077Z,100115.69
2022-11-14T08:36:42.729Z,100118.72
2022-11-14T08:39:28.565Z,100117.53
2022-11-14T08:42:14.151Z,100117.41
2022-11-14T08:44:59.636Z,100113.28
2022-11-14T08:47:50.730Z,100113.50
2022-11-14T08:50:36.320Z,100107.34
2022-11-14T08:53:22.119Z,100108.66
2022-11-14T08:56:08.895Z,100114.22
2022-11-14T08:58:54.388Z,100103.25
2022-11-14T09:01:40.041Z,100111.41
2022-11-14T09:04:25.846Z,100105.50
2022-11-14T09:07:11.525Z,100104.81
2022-11-14T09:09:57.290Z,100106.25
2022-11-14T09:12:43.048Z,100110.03
2022-11-14T09:15:29.016Z,100111.59
2022-11-14T09:18:15.378Z,100106.72
2022-11-14T09:21:02.032Z,100105.81
2022-11-14T09:23:47.932Z,100102.88
2022-11-14T09:26:33.394Z,100110.47
2022-11-14T09:29:19.102Z,100107.91
2022-11-14T09:32:04.947Z,100101.97
2022-11-14T09:34:50.527Z,100104.50
2022-11-14T09:37:36.701Z,100097.72
2022-11-14T09:40:22.564Z,100094.31
2022-11-14T09:43:10.948Z,100093.91
2022-11-14T09:45:56.452Z,100083.72
2022-11-14T09:48:42.929Z,100086.09
2022-11-14T09:51:39.666Z,100080.81
2022-11-14T09:54:26.192Z,100076.69
2022-11-14T09:57:15.684Z,100079.16
2022-11-14T10:00:01.389Z,100074.56
2022-11-14T10:02:52.602Z,100064.91
2022-11-14T10:05:38.416Z,100061.31
2022-11-14T10:08:23.884Z,100070.34
2022-11-14T10:11:12.378Z,100061.75
2022-11-14T10:14:16.536Z,100051.72
2022-11-14T10:17:10.570Z,100063.41
2022-11-14T10:20:04.215Z,100049.94
2022-11-14T10:23:02.496Z,100043.56
2022-11-14T10:25:51.155Z,100040.72
2022-11-14T10:28:42.461Z,100038.59
2022-11-14T10:31:37.665Z,100032.50
2022-11-14T10:34:34.694Z,100032.97
2022-11-14T10:37:22.775Z,100032.31
2022-11-14T10:40:16.081Z,100036.16
2022-11-14T10:43:03.937Z,100024.44
2022-11-14T10:45:54.756Z,100026.34
2022-11-14T10:48:41.015Z,100021.59
2022-11-14T10:51:39.921Z,100018.69
2022-11-14T10:54:34.231Z,100010.13
2022-11-14T10:57:20.827Z,99999.06
2022-11-14T11:00:10.875Z,100007.81
2022-11-14T11:02:56.899Z,100001.59
2022-11-14T11:05:46.871Z,100005.88
2022-11-14T11:08:51.287Z,99997.34
2022-11-14T11:11:41.210Z,99993.84
2022-11-14T11:14:27.008Z,99991.19
2022-11-14T11:17:12.756Z,99986.88
2022-11-14T11:20:00.226Z,99986.88
2022-11-14T11:22:48.869Z,99976.44
2022-11-14T11:25:34.605Z,99970.31
2022-11-14T11:28:21.180Z,99973.81
2022-11-14T11:31:07.903Z,99965.09
2022-11-14T11:33:53.519Z,99965.94
2022-11-14T11:36:41.000Z,99966.00
2022-11-14T11:39:29.232Z,99963.19
2022-11-14T11:42:16.200Z,99961.41
2022-11-14T11:45:02.288Z,99957.19
2022-11-14T11:47:58.226Z,99951.09
2022-11-14T11:50:43.689Z,99952.88
2022-11-14T11:53:30.101Z,99952.88
2022-11-14T11:56:17.672Z,99950.28
2022-11-14T11:59:23.580Z,99944.16
2022-11-14T12:02:29.241Z,99943.28
2022-11-14T12:05:19.691Z,99934.38
2022-11-14T12:08:09.852Z,99924.91
2022-11-14T12:10:55.929Z,99927.41
2022-11-14T12:13:44.913Z,99918.84
2022-11-14T12:16:49.114Z,99909.22
2022-11-14T12:19:34.503Z,99909.16
2022-11-14T12:22:38.927Z,99910.88
2022-11-14T12:25:44.379Z,99902.22
2022-11-14T12:28:30.090Z,99892.59
2022-11-14T12:31:16.968Z,99896.16
2022-11-14T12:34:04.034Z,99899.53
2022-11-14T12:36:49.500Z,99886.44
2022-11-14T12:39:34.979Z,99887.37
2022-11-14T12:42:20.582Z,99882.81
2022-11-14T12:45:26.581Z,99879.53
2022-11-14T12:48:15.207Z,99881.22
2022-11-14T12:51:01.187Z,99876.94
2022-11-14T12:53:46.983Z,99880.41
2022-11-14T12:56:32.393Z,99873.44
2022-11-14T12:59:44.113Z,99876.09
2022-11-14T13:02:32.297Z,99877.66
2022-11-14T13:05:34.757Z,99865.47
2022-11-14T13:08:26.432Z,99866.41
2022-11-14T13:11:50.457Z,99866.28
2022-11-14T13:15:11.065Z,99863.66
2022-11-14T13:18:22.005Z,99868.06
2022-11-14T13:21:45.107Z,99860.03
2022-11-14T13:24:50.384Z,99851.84
2022-11-14T13:28:05.382Z,99851.97
2022-11-14T13:31:20.885Z,99861.22
2022-11-14T13:34:28.722Z,99849.91
2022-11-14T13:37:17.096Z,99847.25
2022-11-14T13:40:16.845Z,99847.28
2022-11-14T13:43:06.129Z,99844.66
2022-11-14T13:45:51.694Z,99840.28
2022-11-14T13:48:37.228Z,99838.56
2022-11-14T13:51:42.170Z,99834.19
2022-11-14T13:54:29.319Z,99828.06
2022-11-14T13:57:33.333Z,99829.84
2022-11-14T14:00:21.064Z,99832.31
2022-11-14T14:03:12.902Z,99828.06
2022-11-14T14:06:10.748Z,99833.25
2022-11-14T14:09:25.599Z,99820.00
2022-11-14T14:12:33.975Z,99827.00
2022-11-14T14:15:38.370Z,99831.47
2022-11-14T14:18:25.692Z,99829.62
2022-11-14T14:21:22.265Z,99836.53
2022-11-14T14:24:13.040Z,99831.94
2022-11-14T14:27:06.406Z,99820.66
2022-11-14T14:30:08.282Z,99826.75
2022-11-14T14:33:13.125Z,99811.97
2022-11-14T14:35:58.460Z,99811.84
2022-11-14T14:38:44.353Z,99817.13
2022-11-14T14:41:30.975Z,99814.53
2022-11-14T14:44:22.203Z,99806.72
2022-11-14T14:47:26.593Z,99807.53
2022-11-14T14:50:24.744Z,99808.50
2022-11-14T14:53:29.955Z,99805.06
2022-11-14T14:56:19.941Z,99805.06
2022-11-14T14:59:18.531Z,99806.81
2022-11-14T15:02:04.195Z,99802.44
2022-11-14T15:04:49.690Z,99800.69
2022-11-14T15:07:35.085Z,99798.16
2022-11-14T15:10:24.678Z,99793.75
2022-11-14T15:13:11.518Z,99799.84
2022-11-14T15:15:57.309Z,99791.25
2022-11-14T15:18:43.958Z,99792.22
2022-11-14T15:21:30.154Z,99793.91
2022-11-14T15:24:17.221Z,99797.41
2022-11-14T15:27:06.544Z,99797.44
2022-11-14T15:29:52.313Z,99788.69
2022-11-14T15:32:38.211Z,99789.41
2022-11-14T15:35:25.718Z,99782.56
2022-11-14T15:38:41.840Z,99782.66
2022-11-14T15:41:21.155Z,99782.63
2022-11-14T15:44:14.786Z,99784.44
2022-11-14T15:47:03.037Z,99784.41
2022-11-14T15:49:58.254Z,99776.56
2022-11-14T15:52:47.593Z,99787.06
2022-11-14T15:55:33.175Z,99783.50
2022-11-14T15:58:28.147Z,99788.78
2022-11-14T16:01:19.159Z,99790.50
2022-11-14T16:04:04.959Z,99790.53
2022-11-14T16:06:50.883Z,99786.13
2022-11-14T16:09:40.014Z,99781.81
2022-11-14T16:12:25.676Z,99786.19
2022-11-14T16:15:11.493Z,99787.94
2022-11-14T16:17:56.905Z,99797.56
2022-11-14T16:20:42.857Z,99792.34
2022-11-14T16:23:29.032Z,99793.16
2022-11-14T16:26:14.970Z,99794.03
2022-11-14T16:29:00.892Z,99794.91
2022-11-14T16:31:47.316Z,99792.22
2022-11-14T16:34:32.983Z,99792.25
2022-11-14T16:37:18.696Z,99791.34
2022-11-14T16:40:04.700Z,99790.44
2022-11-14T16:42:50.212Z,99784.28
2022-11-14T16:45:36.934Z,99797.41
2022-11-14T16:48:22.666Z,99790.41
2022-11-14T16:51:33.037Z,99787.78
2022-11-14T16:54:14.989Z,99783.41
2022-11-14T16:57:01.019Z,99795.66
2022-11-14T16:59:46.666Z,99791.28
2022-11-14T17:02:32.582Z,99786.91
2022-11-14T17:05:18.326Z,99786.94
2022-11-14T17:08:05.485Z,99788.69
2022-11-14T17:10:51.439Z,99785.16
2022-11-14T17:13:37.838Z,99785.16
2022-11-14T17:16:24.332Z,99782.56
2022-11-14T17:19:10.180Z,99776.44
2022-11-14T17:21:56.260Z,99774.66
2022-11-14T17:24:42.627Z,99766.84
2022-11-14T17:27:28.472Z,99765.16
2022-11-14T17:30:14.213Z,99773.94
2022-11-14T17:33:00.234Z,99774.81
2022-11-14T17:35:46.964Z,99767.84
2022-11-14T17:38:36.218Z,99771.38
2022-11-14T17:41:22.643Z,99768.72
2022-11-14T17:44:09.797Z,99769.62
2022-11-14T17:46:55.422Z,99769.59
2022-11-14T17:49:41.641Z,99771.34
2022-11-14T17:52:28.120Z,99768.72
2022-11-14T17:55:14.544Z,99760.03
2022-11-14T17:58:00.578Z,99759.13
2022-11-14T18:00:46.462Z,99762.59
2022-11-14T18:03:32.445Z,99756.53
2022-11-14T18:06:19.388Z,99760.00
2022-11-14T18:09:08.094Z,99752.19
2022-11-14T18:11:56.426Z,99757.44
2022-11-14T18:14:42.647Z,99754.84
2022-11-14T18:17:28.988Z,99761.78
2022-11-14T18:20:15.637Z,99754.81
2022-11-14T18:23:01.728Z,99760.91
2022-11-14T18:25:48.437Z,99760.94
2022-11-14T18:28:35.783Z,99755.72
2022-11-14T18:31:23.112Z,99760.91
2022-11-14T18:34:09.156Z,99755.69
2022-11-14T18:36:55.317Z,99753.09
2022-11-14T18:39:41.806Z,99751.34
2022-11-14T18:42:28.339Z,99745.22
2022-11-14T18:45:17.393Z,99748.72
2022-11-14T18:48:03.837Z,99747.00
2022-11-14T18:50:49.589Z,99746.97
2022-11-14T18:53:35.809Z,99747.00
2022-11-14T18:56:22.225Z,99733.91
2022-11-14T18:59:09.827Z,99739.12
2022-11-14T19:01:58.812Z,99726.06
2022-11-14T19:04:45.136Z,99729.56
2022-11-14T19:07:31.380Z,99728.59
2022-11-14T19:10:17.911Z,99735.56
2022-11-14T19:13:03.961Z,99725.97
2022-11-14T19:15:50.153Z,99732.97
2022-11-14T19:18:36.069Z,99730.25
2022-11-14T19:21:24.932Z,99731.16
2022-11-14T19:24:11.680Z,99732.91
2022-11-14T19:26:57.820Z,99738.12
2022-11-14T19:29:45.182Z,99734.53
2022-11-14T19:32:31.793Z,99742.28
2022-11-14T19:35:20.607Z,99731.12
2022-11-14T19:38:06.701Z,99731.03
2022-11-14T19:40:53.060Z,99736.22
2022-11-14T19:43:39.812Z,99738.00
2022-11-14T19:46:27.603Z,99740.66
2022-11-14T19:49:14.255Z,99743.38
2022-11-14T19:52:01.530Z,99740.75
2022-11-14T19:54:49.484Z,99750.25
2022-11-14T19:57:35.357Z,99739.84
2022-11-14T20:00:25.310Z,99725.06
2022-11-14T20:03:11.908Z,99711.16
2022-11-14T20:05:57.833Z,99718.06
2022-11-14T20:08:44.314Z,99720.66
2022-11-14T20:11:31.089Z,99718.94
2022-11-14T20:14:17.841Z,99713.69
2022-11-14T20:17:10.179Z,99708.47
2022-11-14T20:19:56.928Z,99704.09
2022-11-14T20:22:43.380Z,99702.31
2022-11-14T20:25:29.692Z,99700.66
2022-11-14T20:28:16.993Z,99697.91
2022-11-14T20:31:03.707Z,99704.94
2022-11-14T20:33:49.720Z,99705.03
2022-11-14T20:36:57.056Z,99695.47
2022-11-14T20:39:41.917Z,99695.50
2022-11-14T20:42:27.800Z,99694.59
2022-11-14T20:45:13.923Z,99686.75
2022-11-14T20:48:00.128Z,99685.91
2022-11-14T20:50:46.343Z,99690.25
2022-11-14T20:53:33.146Z,99695.50
2022-11-14T20:56:19.866Z,99691.13
2022-11-14T20:59:07.271Z,99693.75
2022-11-14T21:01:52.942Z,99692.84
2022-11-14T21:04:38.588Z,99685.88
2022-11-14T21:07:24.790Z,99685.81
2022-11-14T21:10:29.125Z,99687.56
2022-11-14T21:13:38.680Z,99678.03
2022-11-14T21:16:30.561Z,99672.84
2022-11-14T21:19:16.551Z,99677.06
2022-11-14T21:22:02.531Z,99672.72
2022-11-14T21:24:48.359Z,99660.63
2022-11-14T21:27:34.291Z,99658.87
2022-11-14T21:30:20.263Z,99664.88
2022-11-14T21:33:06.009Z,99651.03
2022-11-14T21:35:52.135Z,99650.09
2022-11-14T21:38:37.795Z,99645.75
2022-11-14T21:41:24.235Z,99650.09
2022-11-14T21:44:10.633Z,99649.19
2022-11-14T21:46:56.348Z,99639.59
2022-11-14T21:49:42.249Z,99640.56
2022-11-14T21:52:27.830Z,99635.22
2022-11-14T21:55:13.672Z,99640.53
2022-11-14T21:57:59.543Z,99637.00
2022-11-14T22:00:45.335Z,99634.44
2022-11-14T22:03:49.798Z,99633.56
2022-11-14T22:06:35.956Z,99635.31
2022-11-14T22:09:21.771Z,99642.19
2022-11-14T22:12:07.590Z,99636.03
2022-11-14T22:14:53.465Z,99631.75
2022-11-14T22:17:39.064Z,99619.59
2022-11-14T22:20:24.792Z,99623.97
2022-11-14T22:23:10.439Z,99622.22
2022-11-14T22:25:56.882Z,99621.38
2022-11-14T22:28:42.579Z,99620.47
2022-11-14T22:31:28.288Z,99618.75
2022-11-14T22:34:14.108Z,99617.06
2022-11-14T22:36:59.790Z,99611.81
2022-11-14T22:39:45.596Z,99613.56
2022-11-14T22:42:31.228Z,99609.22
2022-11-14T22:45:17.096Z,99610.94
2022-11-14T22:48:02.986Z,99608.34
2022-11-14T22:50:56.530Z,99605.75
2022-11-14T22:53:42.010Z,99608.34
2022-11-14T22:56:28.623Z,99599.66
2022-11-14T22:59:14.177Z,99601.41
2022-11-14T23:01:59.872Z,99606.97
2022-11-14T23:04:45.679Z,99601.75
2022-11-14T23:07:31.421Z,99596.81
2022-11-14T23:10:17.086Z,99599.69
2022-11-14T23:13:03.173Z,99602.38
2022-11-14T23:15:48.785Z,99608.62
2022-11-14T23:18:34.446Z,99599.13
2022-11-14T23:21:21.351Z,99602.53
2022-11-14T23:24:08.684Z,99599.34
2022-11-14T23:26:54.665Z,99589.53
2022-11-14T23:29:41.681Z,99584.44
2022-11-14T23:32:27.729Z,99584.91
2022-11-14T23:35:13.262Z,99584.16
2022-11-14T23:38:02.653Z,99580.84
2022-11-14T23:40:51.499Z,99574.03
2022-11-14T23:43:36.853Z,99568.13
2022-11-14T23:46:22.650Z,99565.50
2022-11-14T23:49:08.398Z,99562.09
2022-11-14T23:51:55.853Z,99562.00
2022-11-14T23:54:41.527Z,99561.00
2022-11-14T23:57:27.179Z,99565.50
